Aviation Digital Data Service (ADDS)

Output produced by METARs form (1314 UTC 21 May 2018)
found at http://aviationweather.gov/adds/metars/
 
KDFW 211237Z 2113/2218 VRB03KT P6SM FEW050 SCT250 
     FM211600 VRB04KT P6SM BKN045 
     FM220200 14005KT P6SM SCT040 
     FM221200 17005KT 6SM BR SCT015